createdAt,value
2018-12-29T00:02:16.642Z,4.10
2018-12-29T00:04:58.417Z,4.10
2018-12-29T00:07:39.447Z,4.10
2018-12-29T00:10:19.986Z,4.00
2018-12-29T00:13:01.690Z,4.00
2018-12-29T00:15:43.383Z,4.10
2018-12-29T00:18:24.599Z,4.00
2018-12-29T00:21:05.985Z,4.00
2018-12-29T00:23:47.432Z,4.00
2018-12-29T00:26:28.545Z,4.00
2018-12-29T00:29:10.431Z,4.00
2018-12-29T00:31:52.465Z,4.00
2018-12-29T00:34:34.897Z,4.00
2018-12-29T00:37:16.686Z,4.00
2018-12-29T00:39:57.589Z,4.00
2018-12-29T00:42:39.330Z,4.00
2018-12-29T00:45:20.708Z,3.90
2018-12-29T00:48:02.134Z,3.90
2018-12-29T00:50:43.589Z,3.90
2018-12-29T00:53:24.139Z,3.90
2018-12-29T00:56:05.986Z,3.90
2018-12-29T00:58:47.436Z,3.90
2018-12-29T01:01:29.149Z,3.90
2018-12-29T01:04:09.696Z,3.90
2018-12-29T01:06:51.424Z,3.90
2018-12-29T01:09:32.891Z,3.90
2018-12-29T01:12:14.659Z,3.80
2018-12-29T01:14:55.834Z,3.80
2018-12-29T01:17:37.093Z,3.70
2018-12-29T01:20:18.157Z,3.80
2018-12-29T01:22:59.539Z,3.80
2018-12-29T01:25:40.520Z,3.80
2018-12-29T01:28:21.440Z,3.80
2018-12-29T01:31:02.770Z,3.80
2018-12-29T01:33:44.295Z,3.80
2018-12-29T01:36:25.582Z,3.80
2018-12-29T01:39:06.366Z,3.80
2018-12-29T01:41:47.248Z,3.80
2018-12-29T01:44:28.051Z,3.80
2018-12-29T01:47:08.674Z,3.80
2018-12-29T01:49:50.022Z,3.80
2018-12-29T01:52:31.525Z,3.80
2018-12-29T01:55:13.618Z,3.80
2018-12-29T01:57:54.912Z,3.80
2018-12-29T02:00:36.579Z,3.80
2018-12-29T02:03:17.636Z,3.90
2018-12-29T02:05:59.642Z,3.90
2018-12-29T02:08:41.007Z,3.90
2018-12-29T02:11:21.560Z,3.90
2018-12-29T02:14:02.234Z,3.90
2018-12-29T02:16:43.246Z,3.90
2018-12-29T02:19:25.127Z,3.90
2018-12-29T02:22:06.661Z,3.90
2018-12-29T02:24:48.070Z,3.90
2018-12-29T02:27:29.072Z,3.90
2018-12-29T02:30:08.919Z,3.90
2018-12-29T02:32:57.515Z,3.90
2018-12-29T02:35:38.930Z,3.90
2018-12-29T02:38:21.099Z,3.90
2018-12-29T02:41:02.001Z,3.90
2018-12-29T02:43:43.416Z,3.90
2018-12-29T02:46:24.053Z,3.80
2018-12-29T02:49:04.720Z,3.80
2018-12-29T02:51:46.193Z,3.80
2018-12-29T02:54:27.966Z,3.90
2018-12-29T02:57:09.409Z,3.80
2018-12-29T02:59:51.562Z,3.80
2018-12-29T03:02:32.610Z,3.80
2018-12-29T03:05:14.123Z,3.80
2018-12-29T03:07:55.323Z,3.80
2018-12-29T03:10:36.257Z,3.80
2018-12-29T03:13:17.580Z,3.80
2018-12-29T03:15:58.829Z,3.80
2018-12-29T03:18:39.735Z,3.80
2018-12-29T03:21:21.486Z,3.80
2018-12-29T03:24:02.787Z,3.80
2018-12-29T03:26:43.994Z,3.80
2018-12-29T03:29:24.930Z,3.80
2018-12-29T03:32:06.284Z,3.80
2018-12-29T03:34:48.312Z,3.80
2018-12-29T03:37:30.252Z,3.80
2018-12-29T03:40:11.440Z,3.80
2018-12-29T03:42:52.668Z,3.80
2018-12-29T03:45:34.133Z,3.80
2018-12-29T03:48:16.017Z,3.80
2018-12-29T03:50:57.342Z,3.80
2018-12-29T03:53:38.249Z,3.70
2018-12-29T03:56:17.918Z,3.70
2018-12-29T03:58:59.348Z,3.60
2018-12-29T04:01:40.091Z,3.70
2018-12-29T04:04:21.785Z,3.60
2018-12-29T04:07:02.388Z,3.70
2018-12-29T04:09:43.472Z,3.70
2018-12-29T04:12:24.525Z,3.70
2018-12-29T04:15:05.884Z,3.60
2018-12-29T04:17:47.302Z,3.70
2018-12-29T04:20:28.752Z,3.60
2018-12-29T04:23:09.992Z,3.60
2018-12-29T04:25:51.619Z,3.60
2018-12-29T04:28:32.688Z,3.60
2018-12-29T04:31:14.415Z,3.60
2018-12-29T04:33:55.769Z,3.60
2018-12-29T04:36:37.156Z,3.60
2018-12-29T04:39:17.710Z,3.60
2018-12-29T04:41:58.696Z,3.60
2018-12-29T04:44:39.200Z,3.60
2018-12-29T04:47:19.867Z,3.60
2018-12-29T04:50:00.689Z,3.50
2018-12-29T04:52:42.343Z,3.50
2018-12-29T04:55:23.399Z,3.50
2018-12-29T04:58:04.883Z,3.50
2018-12-29T05:00:46.350Z,3.50
2018-12-29T05:03:27.717Z,3.50
2018-12-29T05:06:08.537Z,3.50
2018-12-29T05:08:49.373Z,3.50
2018-12-29T05:11:30.640Z,3.50
2018-12-29T05:14:12.081Z,3.50
2018-12-29T05:16:53.120Z,3.40
2018-12-29T05:19:33.894Z,3.40
2018-12-29T05:22:15.016Z,3.40
2018-12-29T05:24:55.977Z,3.40
2018-12-29T05:27:37.948Z,3.40
2018-12-29T05:30:18.886Z,3.40
2018-12-29T05:32:59.763Z,3.30
2018-12-29T05:35:40.823Z,3.40
2018-12-29T05:38:22.638Z,3.40
2018-12-29T05:41:03.792Z,3.40
2018-12-29T05:43:45.219Z,3.40
2018-12-29T05:46:25.771Z,3.30
2018-12-29T05:49:07.617Z,3.40
2018-12-29T05:51:48.955Z,3.40
2018-12-29T05:54:30.308Z,3.40
2018-12-29T05:57:11.096Z,3.40
2018-12-29T05:59:50.610Z,3.40
2018-12-29T06:02:39.720Z,3.40
2018-12-29T06:05:21.299Z,3.40
2018-12-29T06:08:02.755Z,3.40
2018-12-29T06:10:43.483Z,3.30
2018-12-29T06:13:24.318Z,3.30
2018-12-29T06:16:04.676Z,3.40
2018-12-29T06:18:53.117Z,3.30
2018-12-29T06:21:34.363Z,3.30
2018-12-29T06:24:14.995Z,3.30
2018-12-29T06:26:56.133Z,3.30
2018-12-29T06:29:37.552Z,3.30
2018-12-29T06:32:19.097Z,3.30
2018-12-29T06:35:00.906Z,3.30
2018-12-29T06:37:42.243Z,3.30
2018-12-29T06:40:23.365Z,3.30
2018-12-29T06:43:04.771Z,3.30
2018-12-29T06:45:45.620Z,3.30
2018-12-29T06:48:27.080Z,3.30
2018-12-29T06:51:08.574Z,3.30
2018-12-29T06:53:48.436Z,3.20
2018-12-29T06:56:37.075Z,3.20
2018-12-29T06:59:18.967Z,3.20
2018-12-29T07:02:00.680Z,3.20
2018-12-29T07:04:41.892Z,3.10
2018-12-29T07:07:23.073Z,3.10
2018-12-29T07:10:04.434Z,3.10
2018-12-29T07:12:45.135Z,3.10
2018-12-29T07:15:26.999Z,3.10
2018-12-29T07:18:08.928Z,3.10
2018-12-29T07:20:49.673Z,3.00
2018-12-29T07:23:31.289Z,3.10
2018-12-29T07:26:12.255Z,3.10
2018-12-29T07:28:53.577Z,3.10
2018-12-29T07:31:34.859Z,3.00
2018-12-29T07:34:16.002Z,3.10
2018-12-29T07:36:56.642Z,3.10
2018-12-29T07:39:37.609Z,3.10
2018-12-29T07:42:17.835Z,3.10
2018-12-29T07:45:06.167Z,3.10
2018-12-29T07:47:47.007Z,3.10
2018-12-29T07:50:28.383Z,3.20
2018-12-29T07:53:09.990Z,3.20
2018-12-29T07:55:51.086Z,3.20
2018-12-29T07:58:32.812Z,3.20
2018-12-29T08:01:14.615Z,3.20
2018-12-29T08:03:55.813Z,3.20
2018-12-29T08:06:37.118Z,3.20
2018-12-29T08:09:18.236Z,3.20
2018-12-29T08:11:57.963Z,3.20
2018-12-29T08:14:39.570Z,3.20
2018-12-29T08:17:21.158Z,3.20
2018-12-29T08:20:02.493Z,3.10
2018-12-29T08:22:43.464Z,3.20
2018-12-29T08:25:24.439Z,3.20
2018-12-29T08:28:06.147Z,3.20
2018-12-29T08:30:46.964Z,3.20
2018-12-29T08:33:28.469Z,3.30
2018-12-29T08:36:09.082Z,3.30
2018-12-29T08:38:50.143Z,3.30
2018-12-29T08:41:31.383Z,3.30
2018-12-29T08:44:12.744Z,3.40
2018-12-29T08:46:53.454Z,3.50
2018-12-29T08:49:34.032Z,3.50
2018-12-29T08:52:15.648Z,3.40
2018-12-29T08:54:57.286Z,3.40
2018-12-29T08:57:39.053Z,3.30
2018-12-29T09:00:20.672Z,3.40
2018-12-29T09:03:01.840Z,3.40
2018-12-29T09:05:42.745Z,3.40
2018-12-29T09:08:23.462Z,3.40
2018-12-29T09:11:04.825Z,3.40
2018-12-29T09:13:45.723Z,3.40
2018-12-29T09:16:26.697Z,3.30
2018-12-29T09:19:08.020Z,3.40
2018-12-29T09:21:49.474Z,3.40
2018-12-29T09:24:31.141Z,3.40
2018-12-29T09:27:12.782Z,3.40
2018-12-29T09:29:54.020Z,3.40
2018-12-29T09:32:35.445Z,3.40
2018-12-29T09:35:17.007Z,3.40
2018-12-29T09:37:57.907Z,3.40
2018-12-29T09:40:39.591Z,3.50
2018-12-29T09:43:20.925Z,3.50
2018-12-29T09:46:02.032Z,3.50
2018-12-29T09:48:42.709Z,3.50
2018-12-29T09:51:23.547Z,3.60
2018-12-29T09:54:04.706Z,3.60
2018-12-29T09:56:46.001Z,3.60
2018-12-29T09:59:27.549Z,3.60
2018-12-29T10:02:08.140Z,3.60
2018-12-29T10:04:49.790Z,3.60
2018-12-29T10:07:31.064Z,3.60
2018-12-29T10:10:12.357Z,3.60
2018-12-29T10:12:53.920Z,3.60
2018-12-29T10:15:35.791Z,3.60
2018-12-29T10:18:16.848Z,3.60
2018-12-29T10:20:58.553Z,3.70
2018-12-29T10:23:40.292Z,3.60
2018-12-29T10:26:21.347Z,3.60
2018-12-29T10:29:03.023Z,3.60
2018-12-29T10:31:44.757Z,3.60
2018-12-29T10:34:24.364Z,3.60
2018-12-29T10:37:05.905Z,3.60
2018-12-29T10:39:47.174Z,3.60
2018-12-29T10:42:29.112Z,3.60
2018-12-29T10:45:10.545Z,3.70
2018-12-29T10:47:51.850Z,3.60
2018-12-29T10:50:32.028Z,3.60
2018-12-29T10:53:12.849Z,3.70
2018-12-29T10:55:53.752Z,3.70
2018-12-29T10:58:34.634Z,3.60
2018-12-29T11:01:15.555Z,3.70
2018-12-29T11:03:56.157Z,3.70
2018-12-29T11:06:37.003Z,3.70
2018-12-29T11:09:18.340Z,3.70
2018-12-29T11:11:59.915Z,3.70
2018-12-29T11:14:40.765Z,3.70
2018-12-29T11:17:20.671Z,3.70
2018-12-29T11:20:09.222Z,3.70
2018-12-29T11:22:50.731Z,3.70
2018-12-29T11:25:32.073Z,3.70
2018-12-29T11:28:13.344Z,3.70
2018-12-29T11:30:54.701Z,3.70
2018-12-29T11:33:35.676Z,3.70
2018-12-29T11:36:17.122Z,3.70
2018-12-29T11:38:57.767Z,3.70
2018-12-29T11:41:39.009Z,3.70
2018-12-29T11:44:19.830Z,3.80
2018-12-29T11:47:01.063Z,3.80
2018-12-29T11:49:41.666Z,3.80
2018-12-29T11:52:21.355Z,3.70
2018-12-29T11:55:10.016Z,3.80
2018-12-29T11:57:51.106Z,3.80
2018-12-29T12:00:32.154Z,3.90
2018-12-29T12:03:13.322Z,3.90
2018-12-29T12:05:54.591Z,3.90
2018-12-29T12:08:36.129Z,3.90
2018-12-29T12:11:17.130Z,3.90
2018-12-29T12:13:58.231Z,3.90
2018-12-29T12:16:39.519Z,3.90
2018-12-29T12:19:20.945Z,4.00
2018-12-29T12:22:02.520Z,4.20
2018-12-29T12:24:43.235Z,4.10
2018-12-29T12:27:22.685Z,4.10
2018-12-29T12:30:11.983Z,4.10
2018-12-29T12:32:53.989Z,4.10
2018-12-29T12:35:35.048Z,4.10
2018-12-29T12:38:16.458Z,4.10
2018-12-29T12:40:58.011Z,4.10
2018-12-29T12:43:38.865Z,4.10
2018-12-29T12:46:20.342Z,4.10
2018-12-29T12:49:01.805Z,4.10
2018-12-29T12:51:41.443Z,4.10
2018-12-29T12:54:21.600Z,4.10
2018-12-29T12:57:10.621Z,4.00
2018-12-29T12:59:53.211Z,4.10
2018-12-29T13:02:38.431Z,4.00
2018-12-29T13:05:21.799Z,4.10
2018-12-29T13:08:03.086Z,4.10
2018-12-29T13:13:47.821Z,4.00
2018-12-29T13:16:31.913Z,4.10
2018-12-29T13:19:14.045Z,4.10
2018-12-29T13:21:56.069Z,4.10
2018-12-29T13:24:38.366Z,4.10
2018-12-29T13:27:21.529Z,4.10
2018-12-29T13:30:02.510Z,4.10
2018-12-29T13:32:43.703Z,4.10
2018-12-29T13:35:25.105Z,4.10
2018-12-29T13:38:06.385Z,4.10
2018-12-29T13:40:47.776Z,4.10
2018-12-29T13:43:29.156Z,4.10
2018-12-29T13:46:10.517Z,4.10
2018-12-29T13:48:52.060Z,4.10
2018-12-29T13:51:33.094Z,4.10
2018-12-29T13:54:14.006Z,4.10
2018-12-29T13:56:55.064Z,4.10
2018-12-29T13:59:36.963Z,4.10
2018-12-29T14:02:18.266Z,4.10
2018-12-29T14:04:59.707Z,4.10
2018-12-29T14:07:41.308Z,4.10
2018-12-29T14:10:22.855Z,4.10
2018-12-29T14:13:04.319Z,4.10
2018-12-29T14:15:45.640Z,4.10
2018-12-29T14:18:28.337Z,4.10
2018-12-29T14:21:09.643Z,4.10
2018-12-29T14:23:51.219Z,4.10
2018-12-29T14:26:31.757Z,4.10
2018-12-29T14:29:12.066Z,4.10
2018-12-29T14:31:53.587Z,4.10
2018-12-29T14:34:35.454Z,4.10
2018-12-29T14:37:16.866Z,4.10
2018-12-29T14:39:58.629Z,4.10
2018-12-29T14:42:39.892Z,4.10
2018-12-29T14:45:20.859Z,4.10
2018-12-29T14:48:02.386Z,4.10
2018-12-29T14:50:43.984Z,4.10
2018-12-29T14:53:25.296Z,4.10
2018-12-29T14:56:06.936Z,4.10
2018-12-29T14:58:47.736Z,4.10
2018-12-29T15:01:29.499Z,4.10
2018-12-29T15:04:10.960Z,4.10
2018-12-29T15:06:50.587Z,4.10
2018-12-29T15:09:39.170Z,4.00
2018-12-29T15:12:20.365Z,4.00
2018-12-29T15:15:01.281Z,4.00
2018-12-29T15:17:42.865Z,4.00
2018-12-29T15:20:24.679Z,4.00
2018-12-29T15:23:06.336Z,4.00
2018-12-29T15:25:48.148Z,4.00
2018-12-29T15:28:30.143Z,4.00
2018-12-29T15:31:11.713Z,4.00
2018-12-29T15:33:53.200Z,4.00
2018-12-29T15:36:34.435Z,4.00
2018-12-29T15:39:15.516Z,4.00
2018-12-29T15:41:56.211Z,4.00
2018-12-29T15:44:37.776Z,4.00
2018-12-29T15:47:19.379Z,4.00
2018-12-29T15:49:59.435Z,4.00
2018-12-29T15:52:40.440Z,4.00
2018-12-29T15:55:21.665Z,3.90
2018-12-29T15:58:03.200Z,4.00
2018-12-29T16:00:44.467Z,4.00
2018-12-29T16:03:25.851Z,3.90
2018-12-29T16:06:07.440Z,3.90
2018-12-29T16:08:46.958Z,4.00
2018-12-29T16:11:35.856Z,4.00
2018-12-29T16:14:17.352Z,4.00
2018-12-29T16:16:58.508Z,4.00
2018-12-29T16:19:39.873Z,4.00
2018-12-29T16:22:20.394Z,4.00
2018-12-29T16:25:01.468Z,4.00
2018-12-29T16:27:42.985Z,4.00
2018-12-29T16:30:24.374Z,4.00
2018-12-29T16:33:04.228Z,4.00
2018-12-29T16:35:53.282Z,4.00
2018-12-29T16:38:34.540Z,4.00
2018-12-29T16:41:15.806Z,4.00
2018-12-29T16:43:57.355Z,4.00
2018-12-29T16:46:37.237Z,4.00
2018-12-29T16:49:25.607Z,4.00
2018-12-29T16:52:06.825Z,4.00
2018-12-29T16:54:48.194Z,4.00
2018-12-29T16:57:29.322Z,4.00
2018-12-29T17:00:11.403Z,4.00
2018-12-29T17:02:52.456Z,4.00
2018-12-29T17:05:33.612Z,4.00
2018-12-29T17:08:14.773Z,4.00
2018-12-29T17:10:56.455Z,4.00
2018-12-29T17:13:37.646Z,4.00
2018-12-29T17:16:18.365Z,4.00
2018-12-29T17:19:14.474Z,4.00
2018-12-29T17:21:50.190Z,4.00
2018-12-29T17:24:31.194Z,4.00
2018-12-29T17:27:12.863Z,4.00
2018-12-29T17:29:54.454Z,4.00
2018-12-29T17:32:36.097Z,4.00
2018-12-29T17:35:17.390Z,4.00
2018-12-29T17:37:58.924Z,4.10
2018-12-29T17:40:40.423Z,4.20
2018-12-29T17:43:21.523Z,4.20
2018-12-29T17:46:02.578Z,4.20
2018-12-29T17:48:44.242Z,4.30
2018-12-29T17:51:26.376Z,4.30
2018-12-29T17:54:08.280Z,4.30
2018-12-29T17:56:50.553Z,4.30
2018-12-29T17:59:31.998Z,4.30
2018-12-29T18:02:13.150Z,4.30
2018-12-29T18:04:54.667Z,4.30
2018-12-29T18:07:35.486Z,4.30
2018-12-29T18:10:16.931Z,4.20
2018-12-29T18:12:58.262Z,4.20
2018-12-29T18:15:39.795Z,4.20
2018-12-29T18:18:21.285Z,4.20
2018-12-29T18:21:01.987Z,4.20
2018-12-29T18:23:44.064Z,4.20
2018-12-29T18:26:25.288Z,4.10
2018-12-29T18:29:06.852Z,4.10
2018-12-29T18:31:48.339Z,4.10
2018-12-29T18:34:30.124Z,4.10
2018-12-29T18:37:11.581Z,4.10
2018-12-29T18:39:56.742Z,4.10
2018-12-29T18:42:38.211Z,4.10
2018-12-29T18:45:20.037Z,4.10
2018-12-29T18:48:01.284Z,4.10
2018-12-29T18:50:42.733Z,4.10
2018-12-29T18:53:24.005Z,4.10
2018-12-29T18:56:05.133Z,4.10
2018-12-29T18:58:46.901Z,4.10
2018-12-29T19:01:28.381Z,4.10
2018-12-29T19:04:09.973Z,4.10
2018-12-29T19:06:51.113Z,4.10
2018-12-29T19:09:31.085Z,4.10
2018-12-29T19:12:19.479Z,4.10
2018-12-29T19:15:00.778Z,4.10
2018-12-29T19:17:42.151Z,4.10
2018-12-29T19:20:24.159Z,4.10
2018-12-29T19:23:05.278Z,4.10
2018-12-29T19:25:47.149Z,4.10
2018-12-29T19:28:28.749Z,4.10
2018-12-29T19:31:10.226Z,4.10
2018-12-29T19:33:51.450Z,4.10
2018-12-29T19:36:32.976Z,4.10
2018-12-29T19:39:15.204Z,4.00
2018-12-29T19:41:56.765Z,4.10
2018-12-29T19:44:38.596Z,4.10
2018-12-29T19:47:19.912Z,4.00
2018-12-29T19:50:02.223Z,4.10
2018-12-29T19:52:43.764Z,4.00
2018-12-29T19:55:25.186Z,4.00
2018-12-29T19:58:06.474Z,4.00
2018-12-29T20:00:47.603Z,4.00
2018-12-29T20:03:29.008Z,4.00
2018-12-29T20:06:11.311Z,4.00
2018-12-29T20:08:52.331Z,3.90
2018-12-29T20:11:31.898Z,3.90
2018-12-29T20:14:20.538Z,3.90
2018-12-29T20:17:01.617Z,3.90
2018-12-29T20:19:43.525Z,3.90
2018-12-29T20:22:24.464Z,3.90
2018-12-29T20:25:05.802Z,3.90
2018-12-29T20:27:47.111Z,3.90
2018-12-29T20:30:27.779Z,3.90
2018-12-29T20:33:08.761Z,3.80
2018-12-29T20:35:49.068Z,3.80
2018-12-29T20:38:30.665Z,3.80
2018-12-29T20:41:12.209Z,3.80
2018-12-29T20:43:52.856Z,3.80
2018-12-29T20:46:34.824Z,3.80
2018-12-29T20:49:16.059Z,3.80
2018-12-29T20:51:57.117Z,3.80
2018-12-29T20:54:38.542Z,3.80
2018-12-29T20:57:19.381Z,3.80
2018-12-29T21:00:01.151Z,3.80
2018-12-29T21:02:43.019Z,3.80
2018-12-29T21:05:25.687Z,3.80
2018-12-29T21:08:07.403Z,3.80
2018-12-29T21:10:48.509Z,3.80
2018-12-29T21:13:29.510Z,3.80
2018-12-29T21:16:11.263Z,3.80
2018-12-29T21:18:53.051Z,3.80
2018-12-29T21:21:34.851Z,3.80
2018-12-29T21:24:16.403Z,3.80
2018-12-29T21:26:57.853Z,3.80
2018-12-29T21:29:39.502Z,3.80
2018-12-29T21:32:20.819Z,3.80
2018-12-29T21:35:02.686Z,3.80
2018-12-29T21:37:44.302Z,3.80
2018-12-29T21:40:25.823Z,3.80
2018-12-29T21:43:07.314Z,3.80
2018-12-29T21:45:49.035Z,3.80
2018-12-29T21:48:30.999Z,3.80
2018-12-29T21:51:12.633Z,3.80
2018-12-29T21:53:53.677Z,3.80
2018-12-29T21:56:34.885Z,3.80
2018-12-29T21:59:16.058Z,3.80
2018-12-29T22:01:57.200Z,3.80
2018-12-29T22:04:38.580Z,3.80
2018-12-29T22:07:19.487Z,3.80
2018-12-29T22:10:00.733Z,3.80
2018-12-29T22:12:41.735Z,3.80
2018-12-29T22:15:21.180Z,3.70
2018-12-29T22:18:09.913Z,3.80
2018-12-29T22:20:50.970Z,3.70
2018-12-29T22:23:32.253Z,3.70
2018-12-29T22:26:13.983Z,3.70
2018-12-29T22:28:55.691Z,3.70
2018-12-29T22:31:37.392Z,3.70
2018-12-29T22:34:19.113Z,3.70
2018-12-29T22:37:00.278Z,3.70
2018-12-29T22:39:42.293Z,3.70
2018-12-29T22:42:23.740Z,3.70
2018-12-29T22:45:04.925Z,3.70
2018-12-29T22:47:46.035Z,3.70
2018-12-29T22:50:27.479Z,3.70
2018-12-29T22:53:08.382Z,3.70
2018-12-29T22:55:50.265Z,3.60
2018-12-29T22:58:31.822Z,3.60
2018-12-29T23:01:12.739Z,3.70
2018-12-29T23:03:54.302Z,3.60
2018-12-29T23:06:35.448Z,3.60
2018-12-29T23:09:17.270Z,3.60
2018-12-29T23:11:58.255Z,3.60
2018-12-29T23:14:40.003Z,3.70
2018-12-29T23:17:21.455Z,3.60
2018-12-29T23:20:03.360Z,3.60
2018-12-29T23:22:44.586Z,3.60
2018-12-29T23:25:26.425Z,3.60
2018-12-29T23:28:07.468Z,3.60
2018-12-29T23:30:48.746Z,3.60
2018-12-29T23:33:29.673Z,3.60
2018-12-29T23:36:10.428Z,3.60
2018-12-29T23:38:52.284Z,3.60
2018-12-29T23:41:34.134Z,3.60
2018-12-29T23:44:15.404Z,3.60
2018-12-29T23:46:56.347Z,3.70
2018-12-29T23:49:37.643Z,3.60
2018-12-29T23:52:18.976Z,3.70
2018-12-29T23:54:59.827Z,3.70
2018-12-29T23:57:41.427Z,3.70
